Accueil
METAR-TAF:

METAR-TAF

Aéroports :

Kangirsuk, Québec, Canada

latitude: 60-01N, longitude: 070-00W, altitude: 117 m

Observation

Le bulletin a été fait il y a 18 heures et 1 minutes, à 14:00 UTC
Vent 4 kt de ouest/nord-ouest
Température -9°C
Humidité 79%
Pression 1005 hPa
Visibilité: 24.1 km
Quelques nuages à une hauteur de 2000 ft
Nuages épars à une hauteur de 24000 ft

METAR: CYAS 161400Z 30004KT 15SM FEW020 SCT240 M09/M12 A2969 RMK SC1CI3 SLP067

Heure: 04:01 (08:01 UTC)

Prévision

Le bulletin a été fait il y a 18 heures et 23 minutes, à 13:38 UTC
Prévision valable du 16 à 14 UTC au 16 à 21 UTC
Vent 3 kt de direction variable
Visibilité: 10 km
Nuages épars à une hauteur de 2000 ft
Temporairement
du 16 à 14 UTC au 16 à 21 UTC
Visibilité: 10 km
Nuages fragmentés à une hauteur de 2000 ft
neige faible

TAF: CYAS 161338Z 1614/1621 VRB03KT P6SM SCT020 TEMPO 1614/1621 P6SM -SN BKN020 RMK NXT FCST WILL BE ISSUED AT 171345Z

Observations et prévisions météorologiques de plus de 4000 aéroports (messages METAR et TAF).

Les stations disponibles sont représentées par des disques jaunes et rouges sur la carte.

Passer la souris dessus pour voir le nom de la station.

Cliquer dessus pour voir les observations et prévisions météorologiques.

Pour changer de carte: cliquez sur les boutons verts avec une croix noire pour zoomer, sur le bouton vert avec un tiret pour effectuer un zoom arrière, ou sur les flèches vertes pour les cartes adjacentes.


METAR-TAF: